createdAt,value
2018-10-02T13:15:12.888Z,14.64
2018-10-02T13:16:12.868Z,14.53
2018-10-02T13:17:12.837Z,14.60
2018-10-02T13:18:12.805Z,14.49
2018-10-02T13:19:12.815Z,14.48
2018-10-02T13:20:12.788Z,14.46
2018-10-02T13:21:12.762Z,14.41
2018-10-02T13:22:12.760Z,14.34
2018-10-02T13:23:12.756Z,14.36
2018-10-02T13:24:12.733Z,14.38
2018-10-02T13:25:12.769Z,14.19
2018-10-02T13:26:12.708Z,14.12
2018-10-02T13:27:12.703Z,14.01
2018-10-02T13:28:12.689Z,13.99
2018-10-02T13:29:12.676Z,14.05
2018-10-02T13:30:12.856Z,14.20
2018-10-02T13:31:12.676Z,14.11
2018-10-02T13:32:12.700Z,14.12
2018-10-02T13:33:12.653Z,14.08
2018-10-02T13:34:12.629Z,14.23
2018-10-02T13:35:12.639Z,14.09
2018-10-02T13:36:12.966Z,14.19
2018-10-02T13:37:12.662Z,14.09
2018-10-02T13:38:12.724Z,14.11
2018-10-02T13:39:12.570Z,14.16
2018-10-02T13:40:12.571Z,14.26
2018-10-02T13:41:13.224Z,14.26
2018-10-02T13:42:12.677Z,14.11
2018-10-02T13:43:12.572Z,14.26
2018-10-02T13:44:13.471Z,14.26
2018-10-02T13:45:12.700Z,14.16
2018-10-02T13:46:12.675Z,14.19
2018-10-02T13:47:12.675Z,14.17
2018-10-02T13:48:12.850Z,14.17
2018-10-02T13:49:12.619Z,14.27
2018-10-02T13:50:12.623Z,14.26
2018-10-02T13:51:12.878Z,14.27
2018-10-02T13:52:13.526Z,14.29
2018-10-02T13:53:12.960Z,14.23
2018-10-02T13:54:15.571Z,14.31
2018-10-02T13:55:12.862Z,14.34
2018-10-02T13:56:12.400Z,14.21
2018-10-02T13:57:13.840Z,14.27
2018-10-02T13:58:13.335Z,14.30
2018-10-02T13:59:12.984Z,14.21
2018-10-02T14:00:13.011Z,14.16
2018-10-02T14:01:12.608Z,14.20
2018-10-02T14:02:12.549Z,14.09
2018-10-02T14:03:12.659Z,13.93
2018-10-02T14:04:12.407Z,14.01
2018-10-02T14:05:12.446Z,14.17
2018-10-02T14:06:12.417Z,14.21
2018-10-02T14:07:12.331Z,14.13
2018-10-02T14:08:12.409Z,14.34
2018-10-02T14:09:12.257Z,14.36
2018-10-02T14:10:12.544Z,14.30
2018-10-02T14:11:12.255Z,14.38
2018-10-02T14:12:12.420Z,14.24
2018-10-02T14:13:12.489Z,14.29
2018-10-02T14:14:12.673Z,14.13
2018-10-02T14:15:12.246Z,14.31
2018-10-02T14:16:12.250Z,14.08
2018-10-02T14:17:18.810Z,13.96
2018-10-02T14:18:12.212Z,13.98
2018-10-02T14:19:12.599Z,13.90
2018-10-02T14:20:12.226Z,13.90
2018-10-02T14:21:12.229Z,13.91
2018-10-02T14:22:12.295Z,13.72
2018-10-02T14:23:12.470Z,13.68
2018-10-02T14:24:12.253Z,13.66
2018-10-02T14:25:12.414Z,13.59
2018-10-02T14:26:12.176Z,13.65
2018-10-02T14:27:12.238Z,13.65
2018-10-02T14:28:12.506Z,13.66
2018-10-02T14:29:12.166Z,13.66
2018-10-02T14:30:12.129Z,13.57
2018-10-02T14:31:12.922Z,13.69
2018-10-02T14:32:12.278Z,13.57
2018-10-02T14:33:12.422Z,13.63
2018-10-02T14:34:12.720Z,13.53
2018-10-02T14:35:12.155Z,13.55
2018-10-02T14:36:12.113Z,13.39
2018-10-02T14:37:11.966Z,13.44
2018-10-02T14:38:11.975Z,13.28
2018-10-02T14:39:12.099Z,13.28
2018-10-02T14:40:12.855Z,13.35
2018-10-02T14:41:11.964Z,13.27
2018-10-02T14:42:12.052Z,13.17
2018-10-02T14:43:12.852Z,13.22
2018-10-02T14:44:12.141Z,13.22
2018-10-02T14:45:11.880Z,13.10
2018-10-02T14:46:12.666Z,13.13
2018-10-02T14:47:12.207Z,13.17
2018-10-02T14:48:11.847Z,13.16
2018-10-02T14:49:11.812Z,13.14
2018-10-02T14:50:11.799Z,13.17
2018-10-02T14:51:11.830Z,13.12
2018-10-02T14:52:11.777Z,13.17
2018-10-02T14:53:11.766Z,13.16
2018-10-02T14:54:12.888Z,13.12
2018-10-02T14:55:12.014Z,13.13
2018-10-02T14:56:12.254Z,13.13
2018-10-02T14:57:12.422Z,13.17
2018-10-02T14:58:11.713Z,13.09
2018-10-02T14:59:12.320Z,13.10
2018-10-02T15:00:12.385Z,12.99
2018-10-02T15:01:11.732Z,12.98
2018-10-02T15:02:20.418Z,12.96
2018-10-02T15:03:11.675Z,12.88
2018-10-02T15:04:11.659Z,12.87
2018-10-02T15:05:11.743Z,12.95
2018-10-02T15:06:11.692Z,12.87
2018-10-02T15:07:12.483Z,12.84
2018-10-02T15:08:11.614Z,12.84
2018-10-02T15:09:11.593Z,12.84
2018-10-02T15:10:11.585Z,12.84
2018-10-02T15:11:11.573Z,12.89
2018-10-02T15:12:11.724Z,12.96
2018-10-02T15:13:11.551Z,12.87
2018-10-02T15:14:11.554Z,12.74
2018-10-02T15:15:11.559Z,12.76
2018-10-02T15:16:11.516Z,12.73
2018-10-02T15:17:11.520Z,12.79
2018-10-02T15:18:11.562Z,12.69
2018-10-02T15:19:11.484Z,12.69
2018-10-02T15:20:11.473Z,12.63
2018-10-02T15:21:11.464Z,12.54
2018-10-02T15:22:11.466Z,12.58
2018-10-02T15:23:11.454Z,12.56
2018-10-02T15:24:11.506Z,12.56
2018-10-02T15:25:11.420Z,12.51
2018-10-02T15:26:11.410Z,12.59
2018-10-02T15:27:11.415Z,12.54
2018-10-02T15:28:11.387Z,12.59
2018-10-02T15:29:11.415Z,12.62
2018-10-02T15:30:11.388Z,12.49
2018-10-02T15:31:11.397Z,12.46
2018-10-02T15:32:11.358Z,12.56
2018-10-02T15:33:11.332Z,12.61
2018-10-02T15:34:11.323Z,12.62
2018-10-02T15:35:11.316Z,12.49
2018-10-02T15:36:11.299Z,12.49
2018-10-02T15:37:11.351Z,12.58
2018-10-02T15:38:11.317Z,12.56
2018-10-02T15:39:11.276Z,12.51
2018-10-02T15:40:11.269Z,12.66
2018-10-02T15:41:11.248Z,12.55
2018-10-02T15:42:11.249Z,12.63
2018-10-02T15:43:11.224Z,12.63
2018-10-02T15:44:11.233Z,12.58
2018-10-02T15:45:11.209Z,12.62
2018-10-02T15:46:11.207Z,12.54
2018-10-02T15:47:11.207Z,12.52
2018-10-02T15:48:11.171Z,12.49
2018-10-02T15:49:11.178Z,12.48
2018-10-02T15:50:11.191Z,12.37
2018-10-02T15:51:11.394Z,12.44
2018-10-02T15:52:11.158Z,12.41
2018-10-02T15:53:11.224Z,12.40
2018-10-02T15:54:11.104Z,12.54
2018-10-02T15:55:11.093Z,12.46
2018-10-02T15:56:11.084Z,12.40
2018-10-02T15:57:11.075Z,12.43
2018-10-02T15:58:11.135Z,12.43
2018-10-02T15:59:11.050Z,12.36
2018-10-02T16:00:11.041Z,12.40
2018-10-02T16:01:11.033Z,12.37
2018-10-02T16:02:11.026Z,12.37
2018-10-02T16:03:11.022Z,12.37
2018-10-02T16:04:10.999Z,12.38
2018-10-02T16:05:10.987Z,12.29
2018-10-02T16:06:10.978Z,12.26
2018-10-02T16:07:10.977Z,12.23
2018-10-02T16:08:10.967Z,12.31
2018-10-02T16:09:10.943Z,12.26
2018-10-02T16:10:10.935Z,12.37
2018-10-02T16:11:10.936Z,12.23
2018-10-02T16:12:10.909Z,12.25
2018-10-02T16:13:10.925Z,12.23
2018-10-02T16:14:10.889Z,12.31
2018-10-02T16:15:10.878Z,12.23
2018-10-02T16:16:10.867Z,12.22
2018-10-02T16:17:10.855Z,12.29
2018-10-02T16:18:10.880Z,12.11
2018-10-02T16:19:10.851Z,12.16
2018-10-02T16:20:10.826Z,12.13
2018-10-02T16:21:10.816Z,12.13
2018-10-02T16:22:10.809Z,12.13
2018-10-02T16:23:10.812Z,12.12
2018-10-02T16:24:10.781Z,12.08
2018-10-02T16:25:10.892Z,12.15
2018-10-02T16:26:10.759Z,12.13
2018-10-02T16:27:10.747Z,12.11
2018-10-02T16:28:10.751Z,12.13
2018-10-02T16:29:10.725Z,12.21
2018-10-02T16:30:10.718Z,12.13
2018-10-02T16:31:10.719Z,12.13
2018-10-02T16:32:10.692Z,12.11
2018-10-02T16:33:10.695Z,12.00
2018-10-02T16:34:10.671Z,11.98
2018-10-02T16:35:10.662Z,11.98
2018-10-02T16:36:10.652Z,11.98
2018-10-02T16:37:10.651Z,11.98
2018-10-02T16:38:10.641Z,12.07
2018-10-02T16:39:10.619Z,12.05
2018-10-02T16:40:10.604Z,11.96
2018-10-02T16:41:10.594Z,12.00
2018-10-02T16:42:10.585Z,11.85
2018-10-02T16:43:10.612Z,11.85
2018-10-02T16:44:10.575Z,11.88
2018-10-02T16:45:10.553Z,11.78
2018-10-02T16:46:10.540Z,11.82
2018-10-02T16:47:10.567Z,11.84
2018-10-02T16:48:10.519Z,11.85
2018-10-02T16:49:10.521Z,11.90
2018-10-02T16:50:10.519Z,11.84
2018-10-02T16:51:10.508Z,11.90
2018-10-02T16:52:10.476Z,11.85
2018-10-02T16:53:10.466Z,11.77
2018-10-02T16:54:10.467Z,11.84
2018-10-02T16:55:10.444Z,11.81
2018-10-02T16:56:10.435Z,11.79
2018-10-02T16:57:10.487Z,11.79
2018-10-02T16:58:10.412Z,11.78
2018-10-02T16:59:10.425Z,11.77
2018-10-02T17:00:10.389Z,11.74
2018-10-02T17:01:10.435Z,11.79
2018-10-02T17:02:10.413Z,11.79
2018-10-02T17:03:10.404Z,11.74
2018-10-02T17:04:10.418Z,11.74
2018-10-02T17:05:10.340Z,11.67
2018-10-02T17:06:10.326Z,11.77
2018-10-02T17:07:10.331Z,11.74
2018-10-02T17:08:10.309Z,11.63
2018-10-02T17:09:10.306Z,11.70
2018-10-02T17:10:10.300Z,11.70
2018-10-02T17:11:10.273Z,11.67
2018-10-02T17:12:10.280Z,11.74
2018-10-02T17:13:10.250Z,11.82
2018-10-02T17:14:10.283Z,11.67
2018-10-02T17:15:10.242Z,11.67
2018-10-02T17:16:10.282Z,11.69
2018-10-02T17:17:10.224Z,11.77
2018-10-02T17:18:10.198Z,11.69
2018-10-02T17:19:10.470Z,11.77
2018-10-02T17:20:10.425Z,11.72
2018-10-02T17:21:10.166Z,11.74
2018-10-02T17:22:10.230Z,11.70
2018-10-02T17:23:10.144Z,11.75
2018-10-02T17:24:10.170Z,11.75
2018-10-02T17:25:10.124Z,11.81
2018-10-02T17:26:10.176Z,11.70
2018-10-02T17:27:10.104Z,11.82
2018-10-02T17:28:10.162Z,11.64
2018-10-02T17:29:10.098Z,11.77
2018-10-02T17:30:10.481Z,11.72
2018-10-02T17:31:10.057Z,11.79
2018-10-02T17:32:10.047Z,11.72
2018-10-02T17:33:10.054Z,11.78
2018-10-02T17:34:10.114Z,11.81
2018-10-02T17:35:10.017Z,11.79
2018-10-02T17:36:10.005Z,11.78
2018-10-02T17:37:09.995Z,11.77
2018-10-02T17:38:10.016Z,11.82
2018-10-02T17:39:09.986Z,11.78
2018-10-02T17:40:09.988Z,11.87
2018-10-02T17:41:09.953Z,11.94
2018-10-02T17:42:09.941Z,11.90
2018-10-02T17:43:09.931Z,11.97
2018-10-02T17:44:09.939Z,11.97
2018-10-02T17:45:09.927Z,11.96
2018-10-02T17:46:10.121Z,11.94
2018-10-02T17:47:09.892Z,12.03
2018-10-02T17:48:09.879Z,12.00
2018-10-02T17:49:09.954Z,12.03
2018-10-02T17:50:09.876Z,11.96
2018-10-02T17:51:09.875Z,12.03
2018-10-02T17:52:09.838Z,12.00
2018-10-02T17:53:09.826Z,12.00
2018-10-02T17:54:09.815Z,12.04
2018-10-02T17:55:09.821Z,12.01
2018-10-02T17:56:09.792Z,11.96
2018-10-02T17:57:09.795Z,12.01
2018-10-02T17:58:09.773Z,11.98
2018-10-02T17:59:09.762Z,11.98
2018-10-02T18:00:09.764Z,12.00
2018-10-02T18:01:09.739Z,12.03
2018-10-02T18:02:09.734Z,12.05
2018-10-02T18:03:09.736Z,12.01
2018-10-02T18:04:09.709Z,12.03
2018-10-02T18:05:09.715Z,12.04
2018-10-02T18:06:09.686Z,12.07
2018-10-02T18:07:09.677Z,12.00
2018-10-02T18:08:09.664Z,12.08
2018-10-02T18:09:09.666Z,12.11
2018-10-02T18:10:09.674Z,12.07
2018-10-02T18:11:09.633Z,12.12
2018-10-02T18:12:09.623Z,12.12
2018-10-02T18:13:09.613Z,12.13
2018-10-02T18:14:09.601Z,12.08
2018-10-02T18:15:09.609Z,12.05
2018-10-02T18:16:09.599Z,12.01
2018-10-02T18:17:09.571Z,12.04
2018-10-02T18:18:09.559Z,12.03
2018-10-02T18:19:09.551Z,12.03
2018-10-02T18:20:09.553Z,12.07
2018-10-02T18:21:09.528Z,12.07
2018-10-02T18:22:09.536Z,12.08
2018-10-02T18:23:09.508Z,12.16
2018-10-02T18:24:09.495Z,12.15
2018-10-02T18:25:09.497Z,12.08
2018-10-02T18:26:09.477Z,12.08
2018-10-02T18:27:09.462Z,12.13
2018-10-02T18:28:09.467Z,12.08
2018-10-02T18:29:09.441Z,12.12
2018-10-02T18:30:09.452Z,11.97
2018-10-02T18:31:09.420Z,12.05
2018-10-02T18:32:09.408Z,12.01
2018-10-02T18:33:09.400Z,12.03
2018-10-02T18:34:09.399Z,12.05
2018-10-02T18:35:09.410Z,12.12
2018-10-02T18:36:09.366Z,12.11
2018-10-02T18:37:09.355Z,12.11
2018-10-02T18:38:09.346Z,12.13
2018-10-02T18:39:09.335Z,12.15
2018-10-02T18:40:09.403Z,12.12
2018-10-02T18:41:09.337Z,12.15
2018-10-02T18:42:09.328Z,12.11
2018-10-02T18:43:09.432Z,12.15
2018-10-02T18:44:09.281Z,12.15
2018-10-02T18:45:09.269Z,12.15
2018-10-02T18:46:09.275Z,12.12
2018-10-02T18:47:09.263Z,12.15
2018-10-02T18:48:09.237Z,12.08
2018-10-02T18:49:09.257Z,12.15
2018-10-02T18:50:09.215Z,12.05
2018-10-02T18:51:09.224Z,12.05
2018-10-02T18:52:09.195Z,12.00
2018-10-02T18:53:09.197Z,12.08
2018-10-02T18:54:09.176Z,12.07
2018-10-02T18:55:09.161Z,12.11
2018-10-02T18:56:09.181Z,12.18
2018-10-02T18:57:09.139Z,12.08
2018-10-02T18:58:09.131Z,12.15
2018-10-02T18:59:09.143Z,12.12
2018-10-02T19:00:09.109Z,12.11
2018-10-02T19:01:09.114Z,12.11
2018-10-02T19:02:09.142Z,12.03
2018-10-02T19:03:09.076Z,12.01
2018-10-02T19:04:09.065Z,12.05
2018-10-02T19:05:09.073Z,12.11
2018-10-02T19:06:09.073Z,12.12
2018-10-02T19:07:09.051Z,12.13
2018-10-02T19:08:09.022Z,12.16
2018-10-02T19:09:09.013Z,12.13
2018-10-02T19:10:09.056Z,12.16
2018-10-02T19:11:09.008Z,12.19
2018-10-02T19:12:08.983Z,12.18
2018-10-02T19:13:08.994Z,12.15
2018-10-02T19:14:08.959Z,12.15
2018-10-02T19:15:08.948Z,12.11
2018-10-02T19:16:08.951Z,12.13
2018-10-02T19:17:08.928Z,12.07
2018-10-02T19:18:08.916Z,12.04
2018-10-02T19:19:08.924Z,12.08
2018-10-02T19:20:16.952Z,12.04
2018-10-02T19:21:08.897Z,12.16
2018-10-02T19:22:08.872Z,12.16
2018-10-02T19:23:08.860Z,12.16
2018-10-02T19:24:08.863Z,12.18
2018-10-02T19:25:08.841Z,12.16
2018-10-02T19:26:08.844Z,12.13
2018-10-02T19:27:08.842Z,12.00
2018-10-02T19:28:08.811Z,12.16
2018-10-02T19:29:08.797Z,12.16
2018-10-02T19:30:08.791Z,12.11
2018-10-02T19:31:08.791Z,12.04
2018-10-02T19:32:08.781Z,12.00
2018-10-02T19:33:08.757Z,12.00
2018-10-02T19:34:08.743Z,12.05
2018-10-02T19:35:08.733Z,12.05
2018-10-02T19:36:08.770Z,12.03
2018-10-02T19:37:08.713Z,12.08
2018-10-02T19:38:08.712Z,12.16
2018-10-02T19:39:08.708Z,12.07
2018-10-02T19:40:08.680Z,12.12
2018-10-02T19:41:08.668Z,12.18
2018-10-02T19:42:08.672Z,12.04
2018-10-02T19:43:08.652Z,12.05
2018-10-02T19:44:08.636Z,12.11
2018-10-02T19:45:08.651Z,12.05
2018-10-02T19:46:08.618Z,12.00
2018-10-02T19:47:08.619Z,12.03
2018-10-02T19:48:08.593Z,12.05
2018-10-02T19:49:08.583Z,12.07
2018-10-02T19:50:08.571Z,12.12
2018-10-02T19:51:08.575Z,12.13
2018-10-02T19:52:08.564Z,12.04
2018-10-02T19:53:08.595Z,12.11
2018-10-02T19:54:08.537Z,12.11
2018-10-02T19:55:08.546Z,12.13
2018-10-02T19:56:08.534Z,12.08
2018-10-02T19:57:08.625Z,12.12
2018-10-02T19:58:08.502Z,12.11
2018-10-02T19:59:08.501Z,12.07
2018-10-02T20:00:08.466Z,12.04
2018-10-02T20:01:08.491Z,12.00
2018-10-02T20:02:08.481Z,12.00
2018-10-02T20:03:08.455Z,12.00
2018-10-02T20:04:08.465Z,11.96
2018-10-02T20:05:08.410Z,11.94
2018-10-02T20:06:08.400Z,12.00
2018-10-02T20:07:08.425Z,11.97
2018-10-02T20:08:08.377Z,11.94
2018-10-02T20:09:08.377Z,12.04
2018-10-02T20:10:08.355Z,11.97
2018-10-02T20:11:08.345Z,12.00
2018-10-02T20:12:08.349Z,12.01
2018-10-02T20:13:08.356Z,11.98
2018-10-02T20:14:08.314Z,12.08
2018-10-02T20:15:08.321Z,12.00
2018-10-02T20:16:08.296Z,12.11
2018-10-02T20:17:08.294Z,12.01
2018-10-02T20:18:08.269Z,12.03
2018-10-02T20:19:08.261Z,12.07
2018-10-02T20:20:08.250Z,12.03
2018-10-02T20:21:08.256Z,12.08
2018-10-02T20:22:08.240Z,12.13
2018-10-02T20:23:08.216Z,12.04
2018-10-02T20:24:08.271Z,12.08
2018-10-02T20:25:08.195Z,12.13
2018-10-02T20:26:08.209Z,12.18
2018-10-02T20:27:08.295Z,12.00
2018-10-02T20:28:08.209Z,12.05
2018-10-02T20:29:08.196Z,12.01
2018-10-02T20:30:08.170Z,12.01
2018-10-02T20:31:08.131Z,12.03
2018-10-02T20:32:08.363Z,12.12
2018-10-02T20:33:16.218Z,12.03
2018-10-02T20:34:08.097Z,12.03
2018-10-02T20:35:08.122Z,12.19
2018-10-02T20:36:08.105Z,12.12
2018-10-02T20:37:08.352Z,12.15
2018-10-02T20:38:08.070Z,12.15
2018-10-02T20:39:08.086Z,12.16
2018-10-02T20:40:08.048Z,12.16
2018-10-02T20:41:08.117Z,12.15
2018-10-02T20:42:08.044Z,12.18
2018-10-02T20:43:08.076Z,12.16
2018-10-02T20:44:07.993Z,12.16
2018-10-02T20:45:08.006Z,12.11
2018-10-02T20:46:08.013Z,12.16
2018-10-02T20:47:07.957Z,12.31
2018-10-02T20:48:08.001Z,12.29
2018-10-02T20:49:07.975Z,12.26
2018-10-02T20:50:07.926Z,12.29
2018-10-02T20:51:07.914Z,12.29
2018-10-02T20:52:07.906Z,12.11
2018-10-02T20:53:07.945Z,12.21
2018-10-02T20:54:07.884Z,12.16
2018-10-02T20:55:07.871Z,12.31
2018-10-02T20:56:07.861Z,12.29
2018-10-02T20:57:07.849Z,12.23
2018-10-02T20:58:07.853Z,12.29
2018-10-02T20:59:07.847Z,12.31
2018-10-02T21:00:07.818Z,12.30
2018-10-02T21:01:07.808Z,12.29
2018-10-02T21:02:07.796Z,12.37
2018-10-02T21:03:07.798Z,12.29
2018-10-02T21:04:07.790Z,12.29
2018-10-02T21:05:07.788Z,12.40
2018-10-02T21:06:07.753Z,12.26
2018-10-02T21:07:07.748Z,12.25
2018-10-02T21:08:07.747Z,12.25
2018-10-02T21:09:07.721Z,12.37
2018-10-02T21:10:07.713Z,12.40
2018-10-02T21:11:07.720Z,12.33
2018-10-02T21:12:07.697Z,12.23
2018-10-02T21:13:07.702Z,12.36
2018-10-02T21:14:07.685Z,12.29
2018-10-02T21:15:07.672Z,12.31
2018-10-02T21:16:07.646Z,12.36
2018-10-02T21:17:07.635Z,12.43
2018-10-02T21:18:07.649Z,12.41
2018-10-02T21:19:07.648Z,12.36
2018-10-02T21:20:07.650Z,12.37
2018-10-02T21:21:07.593Z,12.40
2018-10-02T21:22:07.583Z,12.40
2018-10-02T21:23:07.572Z,12.37
2018-10-02T21:24:07.575Z,12.43
2018-10-02T21:25:07.729Z,12.41
2018-10-02T21:26:07.543Z,12.36
2018-10-02T21:27:07.527Z,12.38
2018-10-02T21:28:07.517Z,12.34
2018-10-02T21:29:07.521Z,12.41
2018-10-02T21:30:07.497Z,12.38
2018-10-02T21:31:07.505Z,12.36
2018-10-02T21:32:07.513Z,12.43
2018-10-02T21:33:07.533Z,12.37
2018-10-02T21:34:07.480Z,12.37
2018-10-02T21:35:07.507Z,12.38
2018-10-02T21:36:07.431Z,12.40
2018-10-02T21:37:07.455Z,12.41
2018-10-02T21:38:07.411Z,12.41
2018-10-02T21:39:07.420Z,12.30
2018-10-02T21:40:08.576Z,12.34
2018-10-02T21:41:15.426Z,12.31
2018-10-02T21:42:07.368Z,12.37
2018-10-02T21:43:07.356Z,12.36
2018-10-02T21:44:07.361Z,12.36
2018-10-02T21:45:07.351Z,12.36
2018-10-02T21:46:07.349Z,12.40
2018-10-02T21:47:07.314Z,12.36
2018-10-02T21:48:07.302Z,12.36
2018-10-02T21:49:07.327Z,12.36
2018-10-02T21:50:07.282Z,12.36
2018-10-02T21:51:07.271Z,12.37
2018-10-02T21:52:07.260Z,12.36
2018-10-02T21:53:07.250Z,12.40
2018-10-02T21:54:07.278Z,12.37
2018-10-02T21:55:07.241Z,12.31
2018-10-02T21:56:07.219Z,12.31
2018-10-02T21:57:07.340Z,12.30
2018-10-02T21:58:07.195Z,12.31
2018-10-02T21:59:07.200Z,12.31
2018-10-02T22:00:07.188Z,12.41
2018-10-02T22:01:07.167Z,12.29
2018-10-02T22:02:07.154Z,12.30
2018-10-02T22:03:07.146Z,12.25
2018-10-02T22:04:07.155Z,12.25
2018-10-02T22:05:07.121Z,12.29
2018-10-02T22:06:07.121Z,12.26
2018-10-02T22:07:07.100Z,12.33
2018-10-02T22:08:07.115Z,12.37
2018-10-02T22:09:07.092Z,12.38
2018-10-02T22:10:07.068Z,12.40
2018-10-02T22:11:07.057Z,12.40
2018-10-02T22:12:07.074Z,12.33
2018-10-02T22:13:07.037Z,12.23
2018-10-02T22:14:07.042Z,12.29
2018-10-02T22:15:07.014Z,12.26
2018-10-02T22:16:07.004Z,12.26
2018-10-02T22:17:06.993Z,12.18
2018-10-02T22:18:06.991Z,12.13
2018-10-02T22:19:07.000Z,12.16
2018-10-02T22:20:06.976Z,12.15
2018-10-02T22:21:06.951Z,12.13
2018-10-02T22:22:06.951Z,12.16
2018-10-02T22:23:06.933Z,12.16
2018-10-02T22:24:07.003Z,12.18
2018-10-02T22:25:06.908Z,12.15
2018-10-02T22:26:06.909Z,12.18
2018-10-02T22:27:06.887Z,12.13
2018-10-02T22:28:06.880Z,12.15
2018-10-02T22:29:06.890Z,12.08
2018-10-02T22:30:06.854Z,12.01
2018-10-02T22:31:06.842Z,12.03
2018-10-02T22:32:06.856Z,11.98
2018-10-02T22:33:06.882Z,12.03
2018-10-02T22:34:06.811Z,12.01
2018-10-02T22:35:06.815Z,12.04
2018-10-02T22:36:06.789Z,12.07
2018-10-02T22:37:06.780Z,12.07
2018-10-02T22:38:06.793Z,12.15
2018-10-02T22:39:06.758Z,12.16
2018-10-02T22:40:06.782Z,12.15
2018-10-02T22:41:06.738Z,12.12
2018-10-02T22:42:06.728Z,12.11
2018-10-02T22:43:06.716Z,12.11
2018-10-02T22:44:06.721Z,12.05
2018-10-02T22:45:06.720Z,12.13
2018-10-02T22:46:06.694Z,12.16
2018-10-02T22:47:06.672Z,12.12
2018-10-02T22:48:06.665Z,12.18
2018-10-02T22:49:06.651Z,12.13
2018-10-02T22:50:06.653Z,12.16
2018-10-02T22:51:06.628Z,12.18
2018-10-02T22:52:06.632Z,12.12
2018-10-02T22:53:06.634Z,12.16
2018-10-02T22:54:06.595Z,12.11
2018-10-02T22:55:06.599Z,12.04
2018-10-02T22:56:06.579Z,12.15
2018-10-02T22:57:06.569Z,12.15
2018-10-02T22:58:06.555Z,12.13
2018-10-02T22:59:06.614Z,12.18
2018-10-02T23:00:06.564Z,12.19
2018-10-02T23:01:06.525Z,12.13
2018-10-02T23:02:06.511Z,12.18
2018-10-02T23:03:06.501Z,12.12
2018-10-02T23:04:06.491Z,12.16
2018-10-02T23:05:06.493Z,12.16
2018-10-02T23:06:06.483Z,12.15
2018-10-02T23:07:06.459Z,12.22
2018-10-02T23:08:06.446Z,12.23
2018-10-02T23:09:06.444Z,12.22
2018-10-02T23:10:06.443Z,12.26
2018-10-02T23:11:06.416Z,12.26
2018-10-02T23:12:06.417Z,12.23
2018-10-02T23:13:06.395Z,12.30
2018-10-02T23:14:06.383Z,12.29
2018-10-02T23:15:06.396Z,12.33
2018-10-02T23:16:06.360Z,12.26
2018-10-02T23:17:06.365Z,12.33
2018-10-02T23:18:06.338Z,12.25
2018-10-02T23:19:06.328Z,12.23
2018-10-02T23:20:06.317Z,12.30
2018-10-02T23:21:06.321Z,12.26
2018-10-02T23:22:06.296Z,12.19
2018-10-02T23:23:06.301Z,12.23
2018-10-02T23:24:06.277Z,12.34
2018-10-02T23:25:06.265Z,12.36
2018-10-02T23:26:06.267Z,12.25
2018-10-02T23:27:06.246Z,12.29
2018-10-02T23:28:06.248Z,12.29
2018-10-02T23:29:06.234Z,12.25
2018-10-02T23:30:06.211Z,12.13
2018-10-02T23:31:06.214Z,12.23
2018-10-02T23:32:06.189Z,12.13
2018-10-02T23:33:06.179Z,12.16
2018-10-02T23:34:06.169Z,12.16
2018-10-02T23:35:06.179Z,12.12
2018-10-02T23:36:06.159Z,12.12
2018-10-02T23:37:06.219Z,12.15
2018-10-02T23:38:06.128Z,12.21
2018-10-02T23:39:06.113Z,12.15
2018-10-02T23:40:06.104Z,12.12
2018-10-02T23:41:06.135Z,12.12
2018-10-02T23:42:06.082Z,12.16
2018-10-02T23:43:06.072Z,12.13
2018-10-02T23:44:06.067Z,12.16
2018-10-02T23:45:06.051Z,12.16
2018-10-02T23:46:06.052Z,12.12
2018-10-02T23:47:06.047Z,12.12
2018-10-02T23:48:06.037Z,12.13
2018-10-02T23:49:06.007Z,12.18
2018-10-02T23:50:05.996Z,12.19
2018-10-02T23:51:06.001Z,12.15
2018-10-02T23:52:05.975Z,12.16
2018-10-02T23:53:05.966Z,12.15
2018-10-02T23:54:05.965Z,12.13
2018-10-02T23:55:05.966Z,12.18
2018-10-02T23:56:05.946Z,12.16
2018-10-02T23:57:05.923Z,12.19
2018-10-02T23:58:05.910Z,12.13
2018-10-02T23:59:05.900Z,12.13
